Time;durP1;ratioP1;P1;durP2;ratioP2;P2;SDS_P1;SDS_P2;PMS_P1;PMS_P2;Temp;Humidity;BMP_temperature;BMP_pressure;BME280_temperature;BME280_humidity;BME280_pressure;Samples;Min_cycle;Max_cycle;Signal;HPM_P1;HPM_P2
2021/10/04 00:01:57;;;;;;;1.75;0.95;;;14.30;90.90;;;;;;5073537;28;20087;-72
2021/10/04 00:04:22;;;;;;;3.85;2.20;;;14.30;91.00;;;;;;5084243;28;20051;-72
2021/10/04 00:06:48;;;;;;;1.20;1.00;;;14.30;91.10;;;;;;5089589;28;20790;-72
2021/10/04 00:09:14;;;;;;;2.55;1.58;;;14.30;91.10;;;;;;5082762;28;20033;-72
2021/10/04 00:11:45;;;;;;;3.38;1.40;;;14.30;91.10;;;;;;5085532;28;20032;-72
2021/10/04 00:14:11;;;;;;;2.92;1.13;;;14.30;91.20;;;;;;5091206;28;20390;-72
2021/10/04 00:16:37;;;;;;;3.17;1.50;;;14.20;91.10;;;;;;5089487;28;20114;-72
2021/10/04 00:19:04;;;;;;;4.40;1.92;;;14.30;91.20;;;;;;5071778;28;20037;-72
2021/10/04 00:21:29;;;;;;;2.47;1.17;;;14.30;91.20;;;;;;5082299;28;20426;-72
2021/10/04 00:23:55;;;;;;;7.65;2.47;;;14.20;91.20;;;;;;5076166;28;20031;-72
2021/10/04 00:26:21;;;;;;;5.07;1.50;;;14.30;91.20;;;;;;5086831;28;20119;-72
2021/10/04 00:28:47;;;;;;;9.85;2.35;;;14.30;91.20;;;;;;5091073;28;20054;-72
2021/10/04 00:31:13;;;;;;;5.22;2.03;;;14.30;91.20;;;;;;5090521;28;20424;-72
2021/10/04 00:33:39;;;;;;;2.40;1.50;;;14.30;91.20;;;;;;5087897;28;20032;-72
2021/10/04 00:36:05;;;;;;;3.45;1.33;;;14.30;91.20;;;;;;5078608;28;20025;-71
2021/10/04 00:38:31;;;;;;;3.53;1.33;;;14.30;91.10;;;;;;5078682;28;20070;-72
2021/10/04 00:40:57;;;;;;;5.57;1.55;;;14.30;91.10;;;;;;5079927;28;20025;-72
2021/10/04 00:43:23;;;;;;;2.05;1.10;;;14.30;91.10;;;;;;5086268;28;20119;-72
2021/10/04 00:45:50;;;;;;;1.52;1.02;;;14.30;91.10;;;;;;5078267;28;20111;-72
2021/10/04 00:48:16;;;;;;;3.67;1.45;;;14.30;91.10;;;;;;5078430;28;20037;-71
2021/10/04 00:50:43;;;;;;;6.45;1.95;;;14.20;91.10;;;;;;5078038;28;20502;-72
2021/10/04 00:53:10;;;;;;;4.70;1.92;;;14.30;91.20;;;;;;5084298;28;20024;-72
2021/10/04 00:55:36;;;;;;;4.95;2.00;;;14.30;91.20;;;;;;5088337;28;20039;-72
2021/10/04 00:58:02;;;;;;;2.50;1.70;;;14.20;91.20;;;;;;5080035;28;20475;-72
2021/10/04 01:00:28;;;;;;;3.28;1.40;;;14.30;91.20;;;;;;5094707;28;20471;-72
2021/10/04 01:02:55;;;;;;;3.20;1.40;;;14.20;91.20;;;;;;5090817;28;20036;-71
2021/10/04 01:05:21;;;;;;;0.93;0.65;;;14.30;91.40;;;;;;5089181;28;20016;-72
2021/10/04 01:07:49;;;;;;;3.53;0.98;;;14.30;91.10;;;;;;5087053;28;20077;-72
2021/10/04 01:10:15;;;;;;;1.75;1.15;;;14.30;91.10;;;;;;5081707;28;20066;-72
2021/10/04 01:12:44;;;;;;;5.45;1.50;;;14.30;91.10;;;;;;5094224;28;20036;-72
2021/10/04 01:15:11;;;;;;;1.98;1.70;;;14.20;91.10;;;;;;5078886;28;20035;-72
2021/10/04 01:17:38;;;;;;;5.28;1.45;;;14.20;91.10;;;;;;5085886;28;20031;-72
2021/10/04 01:20:12;;;;;;;1.75;1.25;;;14.20;91.10;;;;;;5088418;28;20024;-72
2021/10/04 01:22:38;;;;;;;2.53;1.50;;;14.20;91.10;;;;;;5080924;28;20043;-72
2021/10/04 01:25:05;;;;;;;3.40;2.25;;;14.20;91.10;;;;;;5093487;28;20040;-72
2021/10/04 01:27:31;;;;;;;5.30;1.00;;;14.20;91.20;;;;;;5080756;28;20103;-72
2021/10/04 01:29:56;;;;;;;1.75;0.93;;;14.20;91.20;;;;;;5094986;28;20115;-71
2021/10/04 01:32:22;;;;;;;2.08;1.02;;;14.20;91.20;;;;;;5091392;28;20039;-72
2021/10/04 01:34:48;;;;;;;9.07;1.33;;;14.20;91.20;;;;;;5091627;28;20028;-72
2021/10/04 01:37:13;;;;;;;2.28;1.10;;;14.20;91.30;;;;;;5084453;28;20032;-72
2021/10/04 01:39:39;;;;;;;3.38;1.42;;;14.20;91.30;;;;;;5088809;28;20049;-72
2021/10/04 01:42:05;;;;;;;1.17;1.08;;;14.10;91.30;;;;;;5078695;28;20090;-72
2021/10/04 01:44:31;;;;;;;2.67;1.30;;;14.20;91.30;;;;;;5082324;28;20107;-72
2021/10/04 01:46:56;;;;;;;2.85;1.52;;;14.10;91.20;;;;;;5080830;28;20537;-72
2021/10/04 01:49:22;;;;;;;4.32;1.30;;;14.20;91.30;;;;;;5081261;28;20020;-72
2021/10/04 01:51:48;;;;;;;1.08;0.80;;;14.20;91.30;;;;;;5085179;28;20039;-72
2021/10/04 01:54:13;;;;;;;3.67;0.95;;;14.20;91.30;;;;;;5080201;28;20784;-72
2021/10/04 01:56:39;;;;;;;7.75;1.92;;;14.10;91.30;;;;;;5082332;28;20039;-72
2021/10/04 01:59:06;;;;;;;11.70;1.60;;;14.20;91.40;;;;;;5081659;28;20055;-72
2021/10/04 02:01:31;;;;;;;1.35;1.25;;;14.10;91.40;;;;;;5081292;28;20042;-72
2021/10/04 02:03:57;;;;;;;1.23;1.05;;;14.10;91.40;;;;;;5092828;28;20028;-72
2021/10/04 02:06:23;;;;;;;1.48;1.08;;;14.10;91.40;;;;;;5090830;28;20060;-72
2021/10/04 02:08:51;;;;;;;2.45;0.95;;;14.10;91.40;;;;;;5080765;28;20085;-72
2021/10/04 02:11:17;;;;;;;5.95;1.25;;;14.10;91.40;;;;;;5078658;28;20032;-72
2021/10/04 02:13:43;;;;;;;1.35;1.25;;;14.10;91.50;;;;;;5087419;28;20016;-72
2021/10/04 02:16:08;;;;;;;8.27;1.38;;;14.00;91.40;;;;;;5076206;28;20032;-72
2021/10/04 02:18:34;;;;;;;3.42;1.10;;;14.10;91.50;;;;;;5088063;28;20024;-72
2021/10/04 02:20:59;;;;;;;2.67;1.33;;;14.10;91.40;;;;;;5085160;28;20145;-72
2021/10/04 02:23:25;;;;;;;0.73;0.73;;;14.10;91.50;;;;;;5090860;28;20408;-72
2021/10/04 02:25:54;;;;;;;4.15;1.27;;;14.10;91.40;;;;;;5078733;28;20020;-72
2021/10/04 02:28:20;;;;;;;4.25;0.95;;;14.10;91.40;;;;;;5076018;28;20032;-72
2021/10/04 02:30:48;;;;;;;3.25;1.40;;;14.10;91.40;;;;;;5078724;28;20484;-72
2021/10/04 02:33:14;;;;;;;2.20;0.93;;;14.10;91.40;;;;;;5083361;28;20062;-72
2021/10/04 02:35:41;;;;;;;2.92;1.50;;;14.00;91.40;;;;;;5088612;28;20491;-72
2021/10/04 02:38:06;;;;;;;2.53;1.23;;;14.10;91.40;;;;;;5092800;28;20036;-71
2021/10/04 02:40:33;;;;;;;0.98;0.90;;;14.10;91.40;;;;;;5078961;28;20056;-72
2021/10/04 02:42:59;;;;;;;0.60;0.60;;;14.10;91.40;;;;;;5076134;28;20393;-72
2021/10/04 02:45:25;;;;;;;8.40;1.52;;;14.10;91.40;;;;;;5073560;28;20361;-72
2021/10/04 02:47:54;;;;;;;3.83;1.48;;;14.10;91.40;;;;;;5074189;28;20037;-72
2021/10/04 02:50:22;;;;;;;4.28;1.10;;;14.10;91.50;;;;;;5084284;28;20091;-72
2021/10/04 02:52:48;;;;;;;4.78;1.52;;;14.00;91.50;;;;;;5090480;28;20584;-72
2021/10/04 02:55:14;;;;;;;1.15;1.00;;;14.00;91.50;;;;;;5088820;28;20036;-72
2021/10/04 02:57:40;;;;;;;14.35;1.65;;;14.00;91.70;;;;;;5087948;28;20097;-72
2021/10/04 03:00:11;;;;;;;0.60;0.60;;;13.90;91.70;;;;;;5074645;28;20476;-72
2021/10/04 03:02:36;;;;;;;3.30;1.73;;;13.90;91.80;;;;;;5075357;28;20040;-72
2021/10/04 03:05:02;;;;;;;1.55;0.60;;;13.90;91.90;;;;;;5077683;28;20016;-72
2021/10/04 03:07:28;;;;;;;0.93;0.82;;;13.80;91.90;;;;;;5076437;28;20508;-72
2021/10/04 03:09:53;;;;;;;5.55;1.13;;;13.90;92.00;;;;;;5075093;28;20024;-71
2021/10/04 03:12:20;;;;;;;0.85;0.65;;;13.80;91.90;;;;;;5079096;28;20056;-71
2021/10/04 03:14:46;;;;;;;1.50;0.75;;;13.80;91.90;;;;;;5071976;28;20012;-71
2021/10/04 03:17:11;;;;;;;1.45;0.90;;;13.90;91.90;;;;;;5081116;28;20066;-71
2021/10/04 03:19:37;;;;;;;1.67;1.20;;;13.90;91.90;;;;;;5072508;28;20048;-71
2021/10/04 03:22:04;;;;;;;7.28;1.60;;;13.90;91.90;;;;;;5071862;28;20064;-71
2021/10/04 03:24:29;;;;;;;6.05;1.67;;;13.90;91.90;;;;;;5078208;28;20016;-71
2021/10/04 03:26:55;;;;;;;2.85;1.33;;;13.90;91.80;;;;;;5073021;28;20024;-71
2021/10/04 03:29:21;;;;;;;4.82;1.15;;;13.90;91.80;;;;;;5075140;28;20464;-70
2021/10/04 03:31:47;;;;;;;1.20;1.02;;;14.00;91.80;;;;;;5073988;28;20109;-72
2021/10/04 03:34:12;;;;;;;4.47;1.13;;;14.00;91.70;;;;;;5072750;28;20121;-71
2021/10/04 03:36:42;;;;;;;1.20;0.82;;;14.00;91.60;;;;;;5073688;28;20142;-71
2021/10/04 03:39:08;;;;;;;5.90;1.73;;;14.00;91.50;;;;;;5039394;28;1044398;-71
2021/10/04 03:41:34;;;;;;;2.38;1.00;;;14.00;91.50;;;;;;5090730;28;20402;-71
2021/10/04 03:44:00;;;;;;;3.65;1.30;;;14.00;91.40;;;;;;5078601;28;20101;-71
2021/10/04 03:46:26;;;;;;;3.13;1.30;;;14.10;91.50;;;;;;5085322;28;20494;-72
2021/10/04 03:48:51;;;;;;;3.00;1.40;;;14.10;91.40;;;;;;5074364;28;20032;-72
2021/10/04 03:51:17;;;;;;;3.88;1.35;;;14.10;91.40;;;;;;5072681;28;20028;-73
2021/10/04 03:53:44;;;;;;;3.50;1.40;;;14.10;91.30;;;;;;5075094;28;20033;-72
2021/10/04 03:56:10;;;;;;;1.95;0.90;;;14.10;91.30;;;;;;5076351;28;20028;-72
2021/10/04 03:58:36;;;;;;;7.95;1.77;;;14.10;91.20;;;;;;5076144;28;20028;-72
2021/10/04 04:01:01;;;;;;;4.75;1.50;;;14.10;91.20;;;;;;5073606;28;21337;-72
2021/10/04 04:03:27;;;;;;;2.53;1.55;;;14.20;91.20;;;;;;5073716;28;20074;-72
2021/10/04 04:05:53;;;;;;;1.00;1.00;;;14.10;91.10;;;;;;5075079;28;20035;-72
2021/10/04 04:08:19;;;;;;;2.38;1.05;;;14.10;91.10;;;;;;5092047;28;20030;-72
2021/10/04 04:10:44;;;;;;;4.28;1.35;;;14.10;91.00;;;;;;5087889;28;20043;-72
2021/10/04 04:13:10;;;;;;;1.02;0.70;;;14.10;91.10;;;;;;5089988;28;20032;-72
2021/10/04 04:15:35;;;;;;;6.70;1.70;;;14.10;91.10;;;;;;5082552;28;20028;-72
2021/10/04 04:18:01;;;;;;;2.20;0.85;;;14.10;91.10;;;;;;5087654;28;20024;-72
2021/10/04 04:20:27;;;;;;;0.88;0.85;;;14.00;91.10;;;;;;5092524;28;20028;-72
2021/10/04 04:22:52;;;;;;;4.80;1.50;;;14.10;91.10;;;;;;5089955;28;20113;-72
2021/10/04 04:25:18;;;;;;;8.23;1.48;;;14.10;91.10;;;;;;5079221;28;20024;-72
2021/10/04 04:27:44;;;;;;;4.30;1.60;;;14.10;91.10;;;;;;5076338;28;20039;-73
2021/10/04 04:30:11;;;;;;;3.15;1.17;;;14.10;91.00;;;;;;5084222;28;20424;-72
2021/10/04 04:32:38;;;;;;;3.90;1.23;;;14.10;91.00;;;;;;5089872;28;20028;-72
2021/10/04 04:35:05;;;;;;;1.63;1.13;;;14.10;91.00;;;;;;5092288;28;20137;-72
2021/10/04 04:37:37;;;;;;;1.80;1.17;;;14.10;90.90;;;;;;5088578;28;20055;-72
2021/10/04 04:40:06;;;;;;;1.55;1.10;;;14.10;90.90;;;;;;5090622;28;20375;-72
2021/10/04 04:42:32;;;;;;;4.22;1.38;;;14.10;90.90;;;;;;5077168;28;20036;-72
2021/10/04 04:45:00;;;;;;;3.80;1.70;;;14.10;90.90;;;;;;5077376;28;20375;-72
2021/10/04 04:47:26;;;;;;;4.00;1.42;;;14.10;91.00;;;;;;5085227;28;20020;-72
2021/10/04 04:49:51;;;;;;;3.22;0.90;;;14.10;90.90;;;;;;5084435;28;20082;-72
2021/10/04 04:52:17;;;;;;;2.45;0.98;;;14.10;90.90;;;;;;5076047;28;20419;-72
2021/10/04 04:54:43;;;;;;;1.63;0.80;;;14.10;90.80;;;;;;5090074;28;20515;-72
2021/10/04 04:57:11;;;;;;;0.80;0.80;;;14.10;90.80;;;;;;5082388;28;20025;-72
2021/10/04 04:59:37;;;;;;;2.25;0.98;;;14.10;90.80;;;;;;5079715;28;20044;-72
2021/10/04 05:02:03;;;;;;;4.95;1.65;;;14.10;90.80;;;;;;5073468;28;20032;-72
2021/10/04 05:04:31;;;;;;;2.20;1.20;;;14.10;90.90;;;;;;5073850;28;20028;-72
2021/10/04 05:06:57;;;;;;;9.95;1.23;;;14.00;90.80;;;;;;5072585;28;20028;-72
2021/10/04 05:09:23;;;;;;;3.90;1.50;;;14.10;90.80;;;;;;5074851;28;20024;-72
2021/10/04 05:12:01;;;;;;;6.57;1.50;;;14.10;90.80;;;;;;5073206;28;20028;-73
2021/10/04 05:14:27;;;;;;;3.05;1.23;;;14.10;90.80;;;;;;5073031;28;20025;-71
2021/10/04 05:16:52;;;;;;;1.23;1.05;;;14.00;90.80;;;;;;5085858;28;20028;-71
2021/10/04 05:19:18;;;;;;;1.38;0.95;;;14.00;90.80;;;;;;5085719;28;20361;-71
2021/10/04 05:21:43;;;;;;;7.47;1.20;;;14.10;90.80;;;;;;5079343;28;20039;-72
2021/10/04 05:24:09;;;;;;;8.30;1.85;;;14.00;90.80;;;;;;5090186;28;20039;-71
2021/10/04 05:26:35;;;;;;;6.95;1.65;;;14.00;90.90;;;;;;5081082;28;20035;-73
2021/10/04 05:29:00;;;;;;;3.00;1.35;;;14.10;90.90;;;;;;5077819;28;20017;-72
2021/10/04 05:31:26;;;;;;;4.35;1.48;;;14.10;90.90;;;;;;5075800;28;20533;-73
2021/10/04 05:33:52;;;;;;;1.90;0.80;;;14.10;90.80;;;;;;5075010;28;20107;-72
2021/10/04 05:36:17;;;;;;;3.70;1.50;;;14.10;90.80;;;;;;5077186;28;20066;-72
2021/10/04 05:38:43;;;;;;;2.33;1.30;;;14.00;90.80;;;;;;5074949;28;20142;-71
2021/10/04 05:41:10;;;;;;;4.97;1.13;;;14.00;90.80;;;;;;5079166;28;20116;-72
2021/10/04 05:43:36;;;;;;;5.30;1.52;;;14.00;90.80;;;;;;5076659;28;20030;-72
2021/10/04 05:46:02;;;;;;;4.63;1.45;;;14.00;90.80;;;;;;5076384;28;20020;-73
2021/10/04 05:48:28;;;;;;;4.20;1.13;;;14.00;90.90;;;;;;5080824;28;20075;-72
2021/10/04 05:50:54;;;;;;;4.82;1.52;;;14.00;90.90;;;;;;5084037;28;20020;-72
2021/10/04 05:53:20;;;;;;;4.13;0.93;;;14.00;90.90;;;;;;5082364;28;20059;-73
2021/10/04 05:55:47;;;;;;;5.40;0.77;;;14.00;90.80;;;;;;5086854;28;20035;-71
2021/10/04 05:58:13;;;;;;;3.00;1.15;;;14.00;90.80;;;;;;5087806;28;20486;-73
2021/10/04 06:00:39;;;;;;;0.80;0.80;;;14.00;90.80;;;;;;5083755;28;20028;-72
2021/10/04 06:03:05;;;;;;;3.83;1.05;;;14.00;90.80;;;;;;5075479;28;20086;-72
2021/10/04 06:05:31;;;;;;;5.30;1.25;;;14.00;90.80;;;;;;5079216;28;20051;-73
2021/10/04 06:07:56;;;;;;;1.35;0.85;;;14.00;90.90;;;;;;5082577;28;20035;-72
2021/10/04 06:10:22;;;;;;;3.88;1.80;;;14.00;90.80;;;;;;5083550;28;20020;-72
2021/10/04 06:12:48;;;;;;;1.13;0.88;;;13.90;90.90;;;;;;5084871;28;20036;-69
2021/10/04 06:15:14;;;;;;;0.73;0.65;;;14.00;90.90;;;;;;5088944;28;20035;-72
2021/10/04 06:17:40;;;;;;;2.88;1.20;;;14.00;90.90;;;;;;5079864;28;20043;-78
2021/10/04 06:20:08;;;;;;;2.80;1.40;;;14.00;90.90;;;;;;5078369;28;20033;-73
2021/10/04 06:22:34;;;;;;;6.07;1.40;;;14.00;90.90;;;;;;5079695;28;20041;-71
2021/10/04 06:25:00;;;;;;;4.85;1.30;;;14.00;90.90;;;;;;5075728;28;20032;-72
2021/10/04 06:27:32;;;;;;;0.70;0.63;;;14.00;91.00;;;;;;5076573;28;20383;-72
2021/10/04 06:29:58;;;;;;;7.78;1.65;;;14.00;90.90;;;;;;5085066;28;20102;-72
2021/10/04 06:32:23;;;;;;;1.50;0.90;;;14.10;91.00;;;;;;5088376;28;20452;-72
2021/10/04 06:34:52;;;;;;;7.43;1.75;;;14.10;90.90;;;;;;5086539;28;20085;-72
2021/10/04 06:37:18;;;;;;;4.30;1.52;;;14.10;90.90;;;;;;5086028;28;20024;-71
2021/10/04 06:39:43;;;;;;;9.73;1.15;;;14.10;90.90;;;;;;5090056;28;20067;-71
2021/10/04 06:42:09;;;;;;;5.97;1.55;;;14.10;90.80;;;;;;5084248;28;20040;-71
2021/10/04 06:44:37;;;;;;;4.05;1.23;;;14.20;90.80;;;;;;5081614;28;20470;-72
2021/10/04 06:47:03;;;;;;;3.28;1.52;;;14.20;90.80;;;;;;5087733;28;20020;-72
2021/10/04 06:49:29;;;;;;;5.60;1.77;;;14.20;90.80;;;;;;5085145;28;20360;-72
2021/10/04 06:51:54;;;;;;;3.92;1.38;;;14.30;90.70;;;;;;5082641;28;20035;-72
2021/10/04 06:54:20;;;;;;;3.03;1.25;;;14.30;90.80;;;;;;5085293;28;20020;-72
2021/10/04 06:56:46;;;;;;;3.78;1.00;;;14.30;90.60;;;;;;5087997;28;20032;-72
2021/10/04 06:59:14;;;;;;;3.95;1.30;;;14.30;90.50;;;;;;5088111;28;20438;-72
2021/10/04 07:01:40;;;;;;;2.97;1.13;;;14.20;90.60;;;;;;5080780;28;20061;-72
2021/10/04 07:04:07;;;;;;;1.63;1.10;;;14.20;90.60;;;;;;5085947;28;20060;-72
2021/10/04 07:06:33;;;;;;;1.90;1.30;;;14.20;90.70;;;;;;5082825;28;20043;-72
2021/10/04 07:08:58;;;;;;;1.48;0.55;;;14.20;90.70;;;;;;5088382;28;20028;-72
2021/10/04 07:11:24;;;;;;;7.72;1.45;;;14.20;90.70;;;;;;5089512;28;20088;-73
2021/10/04 07:13:50;;;;;;;41.60;1.45;;;14.10;90.70;;;;;;5085404;28;20040;-73
2021/10/04 07:16:16;;;;;;;2.13;1.00;;;14.20;90.80;;;;;;5086813;28;20111;-72
2021/10/04 07:18:42;;;;;;;3.50;1.20;;;14.10;90.80;;;;;;5080729;28;20031;-73
2021/10/04 07:21:11;;;;;;;6.88;1.23;;;14.10;90.90;;;;;;5087342;28;20040;-73
2021/10/04 07:23:37;;;;;;;6.93;1.33;;;14.10;90.90;;;;;;5084642;28;20476;-72
2021/10/04 07:26:07;;;;;;;2.78;0.93;;;14.10;90.90;;;;;;5073482;28;20035;-71
2021/10/04 07:28:33;;;;;;;3.88;0.90;;;14.10;90.90;;;;;;5078396;28;20042;-71
2021/10/04 07:30:59;;;;;;;10.13;1.50;;;14.10;90.90;;;;;;5089037;28;20111;-72
2021/10/04 07:33:28;;;;;;;3.65;1.50;;;14.10;91.00;;;;;;5075863;28;20400;-70
2021/10/04 07:35:55;;;;;;;1.58;0.90;;;14.10;91.00;;;;;;5080079;28;20028;-72
2021/10/04 07:38:22;;;;;;;5.47;1.02;;;14.10;90.90;;;;;;5086133;28;20077;-74
2021/10/04 07:40:48;;;;;;;4.05;1.33;;;14.20;90.90;;;;;;5078579;28;20060;-74
2021/10/04 07:43:14;;;;;;;4.53;1.40;;;14.10;91.00;;;;;;5080681;28;20094;-73
2021/10/04 07:45:40;;;;;;;6.07;1.13;;;14.20;91.00;;;;;;5073662;28;20043;-74
2021/10/04 07:48:06;;;;;;;4.10;1.30;;;14.20;91.00;;;;;;5082400;28;20464;-74
2021/10/04 07:50:32;;;;;;;0.63;0.60;;;14.20;91.00;;;;;;5091158;28;20074;-74
2021/10/04 07:52:58;;;;;;;4.30;1.25;;;14.20;90.90;;;;;;5084804;28;20731;-74
2021/10/04 07:55:24;;;;;;;5.93;1.50;;;14.20;91.00;;;;;;5074468;28;20037;-74
2021/10/04 07:57:50;;;;;;;7.35;1.60;;;14.20;91.00;;;;;;5086765;28;20044;-74
2021/10/04 08:00:18;;;;;;;2.33;0.80;;;14.20;91.00;;;;;;5073778;28;20082;-74
2021/10/04 08:02:47;;;;;;;4.45;1.33;;;14.30;91.00;;;;;;5086824;28;20044;-74
2021/10/04 08:05:13;;;;;;;1.13;0.82;;;14.20;91.00;;;;;;5087796;28;20085;-74
2021/10/04 08:07:39;;;;;;;5.50;1.30;;;14.20;90.90;;;;;;5076915;28;20028;-74
2021/10/04 08:10:09;;;;;;;3.70;1.05;;;14.20;91.00;;;;;;5081019;28;20379;-73
2021/10/04 08:12:35;;;;;;;0.55;0.55;;;14.20;91.00;;;;;;5077890;28;20095;-73
2021/10/04 08:15:01;;;;;;;5.35;1.55;;;14.20;91.00;;;;;;5075057;28;20029;-74
2021/10/04 08:17:27;;;;;;;4.28;1.40;;;14.30;91.10;;;;;;5085531;28;20110;-74
2021/10/04 08:19:53;;;;;;;5.60;1.98;;;14.20;91.10;;;;;;5077805;28;20020;-73
2021/10/04 08:22:18;;;;;;;9.45;1.73;;;14.20;91.10;;;;;;5090540;28;20059;-73
2021/10/04 08:24:44;;;;;;;3.30;1.30;;;14.30;91.10;;;;;;5089957;28;20025;-74
2021/10/04 08:27:10;;;;;;;5.22;1.85;;;14.20;91.40;;;;;;5084552;28;20159;-74
2021/10/04 08:29:36;;;;;;;11.48;1.35;;;14.20;91.10;;;;;;5076203;28;20024;-73
2021/10/04 08:32:04;;;;;;;2.05;1.20;;;14.30;91.10;;;;;;5085565;28;20028;-73
2021/10/04 08:34:29;;;;;;;3.10;1.50;;;14.30;91.00;;;;;;5090309;28;20035;-74
2021/10/04 08:36:55;;;;;;;3.85;1.38;;;14.30;91.10;;;;;;5088898;28;20028;-74
2021/10/04 08:39:21;;;;;;;2.63;1.15;;;14.30;91.10;;;;;;5077859;28;20087;-74
2021/10/04 08:41:47;;;;;;;3.92;1.83;;;14.30;91.00;;;;;;5085938;28;20044;-74
2021/10/04 08:44:14;;;;;;;4.32;1.20;;;14.40;91.00;;;;;;5074766;28;20028;-74
2021/10/04 08:46:44;;;;;;;3.33;1.52;;;14.40;91.00;;;;;;5085295;28;20108;-73
2021/10/04 08:49:10;;;;;;;3.85;1.17;;;14.40;91.10;;;;;;5092522;28;20033;-73
2021/10/04 08:51:36;;;;;;;4.32;1.58;;;14.40;91.00;;;;;;5079002;28;20024;-73
2021/10/04 08:54:05;;;;;;;4.18;1.10;;;14.40;91.00;;;;;;5084420;28;20055;-74
2021/10/04 08:56:32;;;;;;;3.30;1.33;;;14.40;91.00;;;;;;5083013;28;20436;-74
2021/10/04 08:58:58;;;;;;;2.05;1.35;;;14.50;91.10;;;;;;5088950;28;20425;-74
2021/10/04 09:01:24;;;;;;;2.85;1.35;;;14.50;91.10;;;;;;5089474;28;20401;-74
2021/10/04 09:03:58;;;;;;;1.50;1.20;;;14.50;91.30;;;;;;5077941;28;20074;-74
2021/10/04 09:06:32;;;;;;;3.03;0.90;;;14.40;91.30;;;;;;5087590;28;20378;-73
2021/10/04 09:09:07;;;;;;;2.38;1.17;;;14.50;91.30;;;;;;5086011;28;20047;-73
2021/10/04 09:11:48;;;;;;;3.47;1.20;;;14.50;91.30;;;;;;5081709;28;20097;-74
2021/10/04 09:14:17;;;;;;;0.85;0.70;;;14.50;91.40;;;;;;5076216;28;20033;-74
2021/10/04 09:16:59;;;;;;;2.85;1.52;;;14.50;91.30;;;;;;5090411;28;20024;-74
2021/10/04 09:19:25;;;;;;;3.92;1.77;;;14.50;91.50;;;;;;5079668;28;20475;-74
2021/10/04 09:22:08;;;;;;;7.60;0.93;;;14.50;91.60;;;;;;5094681;28;20036;-71
2021/10/04 09:24:49;;;;;;;5.05;1.13;;;14.50;91.60;;;;;;5083105;28;20028;-71
2021/10/04 09:27:37;;;;;;;1.60;1.20;;;14.50;91.70;;;;;;5078438;28;20121;-72
2021/10/04 09:30:15;;;;;;;3.40;1.10;;;14.50;91.80;;;;;;5077192;28;20024;-72
2021/10/04 09:32:46;;;;;;;1.55;0.90;;;14.60;91.80;;;;;;5080166;28;20368;-72
2021/10/04 09:35:27;;;;;;;4.93;1.15;;;14.60;91.90;;;;;;5076021;28;20174;-73
2021/10/04 09:37:59;;;;;;;2.28;0.63;;;14.50;91.90;;;;;;5075069;28;20028;-72
2021/10/04 09:40:34;;;;;;;2.97;1.25;;;14.60;91.90;;;;;;5075657;28;20127;-72
2021/10/04 09:43:03;;;;;;;1.10;0.85;;;14.60;92.10;;;;;;5075355;28;20044;-72
2021/10/04 09:45:29;;;;;;;3.42;0.55;;;14.60;92.00;;;;;;5087425;28;20020;-72
2021/10/04 09:47:55;;;;;;;3.72;1.08;;;14.60;92.10;;;;;;5078600;28;20476;-71
2021/10/04 09:50:34;;;;;;;7.60;0.70;;;14.70;92.20;;;;;;5077155;28;20036;-71
2021/10/04 09:53:01;;;;;;;0.70;0.70;;;14.70;92.20;;;;;;5079424;28;20060;-71
2021/10/04 09:55:34;;;;;;;4.82;1.38;;;14.70;92.20;;;;;;5076153;28;20487;-71
2021/10/04 09:58:20;;;;;;;0.53;0.53;;;14.70;92.30;;;;;;5076351;28;20070;-71
2021/10/04 10:00:47;;;;;;;6.68;1.27;;;14.80;92.30;;;;;;5080186;28;20036;-72
2021/10/04 10:03:16;;;;;;;2.40;0.88;;;14.80;92.40;;;;;;5080695;28;20040;-72
2021/10/04 10:05:46;;;;;;;1.10;0.50;;;14.90;92.40;;;;;;5083129;28;20028;-71
2021/10/04 10:08:12;;;;;;;0.50;0.50;;;14.90;92.40;;;;;;5080152;28;20498;-73
2021/10/04 10:10:40;;;;;;;5.70;1.25;;;14.90;92.40;;;;;;5090106;28;20020;-74
2021/10/04 10:13:08;;;;;;;7.72;1.48;;;15.00;92.50;;;;;;5093573;28;20028;-73
2021/10/04 10:15:35;;;;;;;13.38;1.58;;;15.00;92.80;;;;;;5082138;28;20475;-74
2021/10/04 10:18:19;;;;;;;3.03;1.13;;;15.00;92.50;;;;;;5086348;28;20406;-73
2021/10/04 10:20:52;;;;;;;2.53;0.95;;;15.10;92.50;;;;;;5088121;28;20032;-74
2021/10/04 10:23:42;;;;;;;6.00;1.42;;;15.10;92.50;;;;;;5090890;28;20483;-74
2021/10/04 10:26:37;;;;;;;5.30;1.95;;;15.20;92.50;;;;;;5078875;28;20031;-73
2021/10/04 10:29:08;;;;;;;2.42;0.77;;;15.20;92.60;;;;;;5077964;28;20121;-73
2021/10/04 10:31:53;;;;;;;3.97;0.98;;;15.20;92.50;;;;;;5074612;28;20032;-74
2021/10/04 10:34:27;;;;;;;1.90;0.98;;;15.30;92.50;;;;;;5078331;28;20052;-73
2021/10/04 10:37:00;;;;;;;1.83;0.80;;;15.30;92.40;;;;;;5091378;28;20032;-73
2021/10/04 10:39:43;;;;;;;3.35;1.13;;;15.40;92.40;;;;;;5079195;28;20055;-74
2021/10/04 10:42:15;;;;;;;5.10;0.65;;;15.50;92.40;;;;;;5088070;28;20131;-73
2021/10/04 10:45:10;;;;;;;0.50;0.50;;;15.50;92.30;;;;;;5083036;28;20060;-74
2021/10/04 10:47:36;;;;;;;2.17;1.10;;;15.60;92.40;;;;;;5087187;28;20032;-72
2021/10/04 10:50:15;;;;;;;7.47;1.00;;;15.60;92.30;;;;;;5090202;28;20110;-74
2021/10/04 10:52:56;;;;;;;2.80;1.00;;;15.70;92.30;;;;;;5080660;28;20032;-74
2021/10/04 10:55:21;;;;;;;4.38;1.10;;;15.70;92.20;;;;;;5079134;28;20422;-75
2021/10/04 10:57:59;;;;;;;5.45;1.50;;;15.80;92.20;;;;;;5089151;28;20027;-75
2021/10/04 11:00:27;;;;;;;15.90;1.10;;;15.80;92.20;;;;;;5074389;28;20056;-75
2021/10/04 11:03:00;;;;;;;1.40;1.20;;;15.80;92.20;;;;;;5074663;28;20041;-75
2021/10/04 11:05:37;;;;;;;4.40;1.25;;;15.90;92.30;;;;;;5072922;28;20051;-75
2021/10/04 11:08:07;;;;;;;3.70;1.02;;;15.90;92.30;;;;;;5075951;28;20036;-74
2021/10/04 11:10:34;;;;;;;0.80;0.40;;;16.00;92.40;;;;;;5076262;28;20043;-75
2021/10/04 11:13:11;;;;;;;9.82;1.67;;;16.00;92.50;;;;;;5083014;28;20100;-74
2021/10/04 11:15:40;;;;;;;1.02;0.75;;;16.00;92.40;;;;;;5076256;28;20032;-74
2021/10/04 11:18:08;;;;;;;3.83;0.85;;;16.10;92.50;;;;;;5071335;28;20044;-75
2021/10/04 11:20:34;;;;;;;5.57;0.82;;;16.10;92.40;;;;;;5073492;28;20036;-75
2021/10/04 11:23:17;;;;;;;7.65;0.88;;;16.10;92.40;;;;;;5075731;28;20048;-75
2021/10/04 11:25:46;;;;;;;5.17;1.13;;;16.20;92.30;;;;;;5074052;28;20429;-75
2021/10/04 11:28:15;;;;;;;1.80;0.52;;;16.20;92.30;;;;;;5072956;28;20020;-75
2021/10/04 11:30:57;;;;;;;3.30;0.60;;;16.20;92.50;;;;;;5077861;28;20100;-73
2021/10/04 11:33:24;;;;;;;7.45;1.40;;;16.30;92.50;;;;;;5081578;28;20032;-73
2021/10/04 11:36:02;;;;;;;3.65;0.75;;;16.30;92.30;;;;;;5074605;28;20123;-73
2021/10/04 11:38:30;;;;;;;4.65;0.88;;;16.40;92.40;;;;;;5073281;28;20036;-72
2021/10/04 11:40:57;;;;;;;3.08;1.00;;;16.50;92.40;;;;;;5071666;28;20062;-72
2021/10/04 11:43:23;;;;;;;4.82;1.10;;;16.50;92.40;;;;;;5081136;28;20068;-72
2021/10/04 11:45:50;;;;;;;5.22;1.30;;;16.60;92.40;;;;;;5071798;28;20476;-72
2021/10/04 11:48:33;;;;;;;5.43;1.20;;;16.60;92.10;;;;;;5074538;28;20060;-73
2021/10/04 11:51:00;;;;;;;3.75;1.25;;;16.70;92.20;;;;;;5076157;28;20021;-73
2021/10/04 11:53:28;;;;;;;4.75;1.33;;;16.70;92.20;;;;;;5071742;28;20035;-75
2021/10/04 11:56:03;;;;;;;2.00;0.40;;;16.80;92.10;;;;;;5076041;28;20044;-75
2021/10/04 11:58:28;;;;;;;7.88;1.23;;;16.90;92.40;;;;;;5074891;28;20040;-75
2021/10/04 12:00:57;;;;;;;2.03;0.73;;;16.90;92.00;;;;;;5074373;28;20035;-75
2021/10/04 12:03:30;;;;;;;13.68;1.17;;;17.00;92.30;;;;;;5075763;28;20040;-75
2021/10/04 12:05:58;;;;;;;1.25;0.60;;;17.00;91.70;;;;;;5080967;28;20036;-75
2021/10/04 12:08:25;;;;;;;0.68;0.43;;;17.10;91.90;;;;;;5072546;28;20029;-76
2021/10/04 12:11:00;;;;;;;2.72;0.55;;;17.10;91.90;;;;;;5071871;28;20036;-74
2021/10/04 12:13:32;;;;;;;6.90;1.30;;;17.20;91.90;;;;;;5078333;28;20171;-75
2021/10/04 12:16:03;;;;;;;1.95;0.75;;;17.20;92.00;;;;;;5073223;28;20487;-75
2021/10/04 12:18:31;;;;;;;6.82;1.33;;;17.20;92.00;;;;;;5076461;28;20375;-73
2021/10/04 12:21:40;;;;;;;3.70;0.73;;;17.30;91.70;;;;;;5074412;28;20036;-73
2021/10/04 12:24:11;;;;;;;0.90;0.52;;;17.30;91.50;;;;;;5072998;28;20546;-74
2021/10/04 12:26:53;;;;;;;1.17;0.73;;;17.40;91.70;;;;;;5073859;28;20029;-74
2021/10/04 12:29:49;;;;;;;4.68;0.80;;;17.50;91.70;;;;;;5090463;28;20031;-71
2021/10/04 12:32:22;;;;;;;0.40;0.20;;;17.60;91.40;;;;;;5081504;28;20110;-71
2021/10/04 12:35:11;;;;;;;0.32;0.30;;;17.60;91.30;;;;;;5096060;28;20032;-71
2021/10/04 12:37:40;;;;;;;1.65;0.90;;;17.70;91.40;;;;;;5083765;28;20055;-71
2021/10/04 12:40:23;;;;;;;8.55;1.10;;;17.70;91.40;;;;;;5079606;28;20056;-71
2021/10/04 12:42:50;;;;;;;2.30;0.73;;;17.80;90.60;;;;;;5075493;28;20056;-71
2021/10/04 12:45:16;;;;;;;0.47;0.47;;;17.90;91.20;;;;;;5078244;28;20134;-71
2021/10/04 12:48:06;;;;;;;4.47;0.93;;;17.90;91.60;;;;;;5081388;28;20110;-71
2021/10/04 12:50:43;;;;;;;0.55;0.40;;;18.00;91.30;;;;;;5082725;28;20033;-73
2021/10/04 12:53:10;;;;;;;4.63;0.73;;;18.00;91.40;;;;;;5077511;28;20024;-72